createdAt,value
2019-04-26T00:07:49.843Z,24.60
2019-04-26T00:14:04.382Z,30.00
2019-04-26T00:16:45.652Z,23.17
2019-04-26T00:19:25.475Z,26.07
2019-04-26T00:22:05.543Z,25.33
2019-04-26T00:24:45.756Z,25.20
2019-04-26T00:27:12.687Z,27.63
2019-04-26T00:30:06.396Z,23.93
2019-04-26T00:35:57.065Z,26.80
2019-04-26T00:41:39.185Z,25.60
2019-04-26T00:44:05.175Z,25.37
2019-04-26T00:49:52.306Z,26.27
2019-04-26T01:08:40.395Z,27.13
2019-04-26T01:11:26.324Z,27.70
2019-04-26T01:14:06.005Z,26.77
2019-04-26T01:19:57.873Z,26.07
2019-04-26T01:22:37.113Z,25.37
2019-04-26T01:25:17.516Z,25.83
2019-04-26T01:31:08.548Z,26.90
2019-04-26T01:33:47.727Z,26.37
2019-04-26T01:36:27.041Z,26.37
2019-04-26T01:39:08.300Z,25.03
2019-04-26T01:41:49.105Z,24.20
2019-04-26T01:44:38.784Z,26.60
2019-04-26T01:47:18.525Z,25.53
2019-04-26T01:50:17.450Z,30.40
2019-04-26T01:53:25.261Z,27.50
2019-04-26T01:56:11.944Z,25.77
2019-04-26T01:58:50.974Z,24.80
2019-04-26T02:05:03.247Z,27.47
2019-04-26T02:07:42.420Z,27.87
2019-04-26T02:10:23.373Z,28.27
2019-04-26T02:16:21.592Z,27.20
2019-04-26T02:25:17.238Z,26.50
2019-04-26T02:27:43.257Z,24.07
2019-04-26T02:33:41.747Z,26.13
2019-04-26T02:36:07.947Z,28.40
2019-04-26T02:38:54.162Z,28.87
2019-04-26T02:45:24.906Z,25.47
2019-04-26T02:51:46.169Z,26.63
2019-04-26T02:54:53.908Z,28.77
2019-04-26T02:58:01.568Z,27.83
2019-04-26T03:00:28.124Z,25.63
2019-04-26T03:07:01.882Z,28.30
2019-04-26T03:18:57.807Z,27.77
2019-04-26T03:21:45.856Z,28.40
2019-04-26T03:27:52.281Z,28.60
2019-04-26T03:31:00.097Z,27.97
2019-04-26T03:34:06.148Z,26.63
2019-04-26T03:37:33.773Z,26.27
2019-04-26T03:53:41.588Z,27.17
2019-04-26T04:03:43.487Z,28.67
2019-04-26T04:06:30.536Z,26.60
2019-04-26T04:09:10.103Z,27.43
2019-04-26T04:11:50.259Z,26.57
2019-04-26T04:14:56.259Z,28.33
2019-04-26T04:17:47.823Z,26.43
2019-04-26T04:24:24.980Z,26.50
2019-04-26T04:30:06.204Z,27.23
2019-04-26T04:32:46.278Z,28.00
2019-04-26T04:35:26.361Z,28.47
2019-04-26T04:41:16.657Z,26.67
2019-04-26T04:44:24.301Z,27.43
2019-04-26T04:47:22.362Z,29.17
2019-04-26T04:49:52.713Z,28.57
2019-04-26T04:56:33.598Z,25.70
2019-04-26T04:59:24.420Z,26.13
2019-04-26T05:02:08.076Z,26.93
2019-04-26T05:05:07.773Z,25.30
2019-04-26T05:07:47.312Z,24.73
2019-04-26T05:10:28.038Z,22.20
2019-04-26T05:13:27.151Z,23.37
2019-04-26T05:22:23.119Z,20.90
2019-04-26T05:28:46.203Z,23.07
2019-04-26T05:34:48.950Z,21.87
2019-04-26T05:41:26.040Z,23.20
2019-04-26T05:44:33.717Z,23.57
2019-04-26T05:47:33.485Z,26.53
2019-04-26T05:50:41.165Z,28.73
2019-04-26T05:54:06.842Z,28.77
2019-04-26T06:00:33.606Z,27.67
2019-04-26T06:14:22.945Z,29.97
2019-04-26T06:17:21.895Z,33.77
2019-04-26T06:20:05.094Z,33.80
2019-04-26T06:26:04.783Z,32.07
2019-04-26T06:28:44.585Z,29.50
2019-04-26T06:31:43.605Z,32.17
2019-04-26T06:34:51.275Z,32.23
2019-04-26T06:37:59.769Z,31.77
2019-04-26T06:41:07.086Z,31.33
2019-04-26T06:46:47.620Z,31.63
2019-04-26T06:49:46.859Z,31.63
2019-04-26T06:52:26.148Z,29.73
2019-04-26T06:58:33.230Z,32.20
2019-04-26T07:01:22.879Z,30.63
2019-04-26T07:04:30.551Z,31.90
2019-04-26T07:07:18.300Z,31.30
2019-04-26T07:10:26.021Z,29.90
2019-04-26T07:13:51.711Z,31.73
2019-04-26T07:16:30.805Z,30.50
2019-04-26T07:19:11.146Z,32.10
2019-04-26T07:22:10.979Z,33.50
2019-04-26T07:24:52.195Z,33.70
2019-04-26T07:27:31.535Z,34.33
2019-04-26T07:30:10.793Z,29.50
2019-04-26T07:32:54.645Z,29.17
2019-04-26T07:39:10.565Z,32.53
2019-04-26T07:45:46.913Z,29.40
2019-04-26T07:52:08.542Z,29.63
2019-04-26T07:57:49.264Z,28.63
2019-04-26T08:00:44.581Z,30.10
2019-04-26T08:03:54.535Z,28.67
2019-04-26T08:06:34.461Z,27.27
2019-04-26T08:09:27.036Z,27.43
2019-04-26T08:16:04.912Z,26.73
2019-04-26T08:18:45.957Z,27.70
2019-04-26T08:21:31.833Z,26.30
2019-04-26T08:24:37.800Z,27.17
2019-04-26T08:43:10.926Z,25.70
2019-04-26T08:48:32.351Z,25.60
2019-04-26T08:51:31.729Z,24.17
2019-04-26T08:54:16.221Z,24.93
2019-04-26T08:59:58.735Z,24.70
2019-04-26T09:02:57.781Z,26.40
2019-04-26T09:12:28.663Z,22.70
2019-04-26T09:18:54.298Z,23.00
2019-04-26T09:21:47.495Z,22.87
2019-04-26T09:24:39.500Z,21.60
2019-04-26T09:27:22.474Z,22.27
2019-04-26T09:36:07.988Z,21.20
2019-04-26T09:38:47.581Z,20.63
2019-04-26T09:41:13.624Z,24.83
2019-04-26T09:50:49.064Z,19.60
2019-04-26T09:56:39.483Z,17.73
2019-04-26T10:02:29.521Z,20.63
2019-04-26T10:05:27.197Z,19.53
2019-04-26T10:08:08.349Z,21.27
2019-04-26T10:10:47.711Z,18.90
2019-04-26T10:13:27.708Z,16.80
2019-04-26T10:31:59.637Z,19.97
2019-04-26T10:34:47.503Z,22.23
2019-04-26T10:37:55.475Z,21.17
2019-04-26T10:43:41.674Z,19.20
2019-04-26T10:46:24.535Z,19.73
2019-04-26T10:49:09.728Z,19.97
2019-04-26T10:52:04.402Z,18.27
2019-04-26T10:54:30.429Z,19.87
2019-04-26T11:00:27.678Z,23.73
2019-04-26T11:03:13.751Z,19.63
2019-04-26T11:05:57.081Z,20.07
2019-04-26T11:08:23.067Z,21.43
2019-04-26T11:11:27.560Z,19.37
2019-04-26T11:16:48.089Z,20.80
2019-04-26T11:22:37.517Z,23.77
2019-04-26T11:25:18.356Z,16.60
2019-04-26T11:27:48.481Z,21.37
2019-04-26T11:30:38.610Z,24.13
2019-04-26T11:33:18.144Z,32.93
2019-04-26T11:35:57.183Z,35.27
2019-04-26T11:38:36.229Z,33.60
2019-04-26T11:41:16.180Z,31.50
2019-04-26T11:43:42.273Z,31.87
2019-04-26T11:46:30.077Z,33.57
2019-04-26T11:49:16.319Z,32.73
2019-04-26T11:51:58.577Z,34.83
2019-04-26T11:54:23.339Z,35.13
2019-04-26T11:57:12.124Z,40.60
2019-04-26T12:03:09.381Z,37.50
2019-04-26T12:09:06.482Z,39.47
2019-04-26T12:11:35.209Z,36.90
2019-04-26T12:14:29.506Z,37.50
2019-04-26T12:17:08.315Z,37.07
2019-04-26T12:23:05.615Z,35.57
2019-04-26T12:28:48.882Z,33.30
2019-04-26T12:31:34.732Z,40.20
2019-04-26T12:34:00.762Z,33.70
2019-04-26T12:36:46.660Z,34.20
2019-04-26T12:42:20.141Z,41.23
2019-04-26T12:51:47.349Z,36.37
2019-04-26T12:54:11.692Z,33.50
2019-04-26T12:56:57.627Z,35.07
2019-04-26T13:02:42.229Z,33.87
2019-04-26T13:05:28.115Z,34.67
2019-04-26T13:07:54.162Z,34.17
2019-04-26T13:11:00.046Z,37.67
2019-04-26T13:13:41.710Z,33.20
2019-04-26T13:16:26.598Z,40.43
2019-04-26T13:19:19.779Z,34.27
2019-04-26T13:21:48.299Z,34.13
2019-04-26T13:24:28.107Z,34.83
2019-04-26T13:27:10.492Z,33.60
2019-04-26T13:32:56.797Z,33.60
2019-04-26T13:35:22.831Z,37.53
2019-04-26T13:38:10.023Z,38.30
2019-04-26T13:40:59.809Z,38.13
2019-04-26T13:43:37.782Z,40.30
2019-04-26T13:49:48.228Z,39.27
2019-04-26T13:52:28.002Z,41.87
2019-04-26T13:54:55.399Z,42.23
2019-04-26T13:57:48.330Z,44.97
2019-04-26T14:03:33.332Z,45.77
2019-04-26T14:06:32.473Z,47.43
2019-04-26T14:09:16.030Z,51.63
2019-04-26T14:11:58.128Z,49.10
2019-04-26T14:14:36.813Z,49.23
2019-04-26T14:17:15.934Z,50.60
2019-04-26T14:19:55.765Z,47.83
2019-04-26T14:22:41.010Z,53.33
2019-04-26T14:25:20.713Z,50.43
2019-04-26T14:27:59.881Z,44.20
2019-04-26T14:30:41.813Z,49.70
2019-04-26T14:33:39.699Z,43.43
2019-04-26T14:41:58.407Z,38.80
2019-04-26T14:44:32.840Z,39.70
2019-04-26T14:47:13.850Z,42.23
2019-04-26T14:53:03.629Z,42.63
2019-04-26T14:55:36.925Z,41.40
2019-04-26T14:58:02.930Z,40.10
2019-04-26T15:09:48.472Z,44.10
2019-04-26T15:15:53.915Z,39.23
2019-04-26T15:18:36.967Z,36.03
2019-04-26T15:21:03.916Z,34.43
2019-04-26T15:24:25.847Z,27.43
2019-04-26T15:26:51.615Z,27.23
2019-04-26T15:29:32.300Z,29.80
2019-04-26T15:32:13.063Z,28.37
2019-04-26T15:34:39.224Z,27.20
2019-04-26T15:40:59.533Z,24.23
2019-04-26T15:46:55.267Z,21.80
2019-04-26T15:49:42.829Z,20.50
2019-04-26T15:52:15.952Z,20.77
2019-04-26T15:54:42.507Z,25.70
2019-04-26T15:57:54.991Z,20.90
2019-04-26T16:00:35.612Z,21.33
2019-04-26T16:09:35.292Z,19.23
2019-04-26T16:12:24.558Z,19.10
2019-04-26T16:18:00.086Z,20.17
2019-04-26T16:20:46.292Z,15.63
2019-04-26T16:23:38.125Z,16.60
2019-04-26T16:25:53.357Z,17.87
2019-04-26T16:28:43.041Z,12.20
2019-04-26T16:31:27.294Z,12.27
2019-04-26T16:34:14.204Z,15.17
2019-04-26T16:37:00.380Z,12.13
2019-04-26T16:39:40.171Z,13.13
2019-04-26T16:42:07.504Z,15.87
2019-04-26T16:45:04.098Z,14.30
2019-04-26T16:48:08.955Z,13.20
2019-04-26T16:50:48.336Z,12.63
2019-04-26T16:56:09.349Z,14.77
2019-04-26T16:58:49.244Z,13.77
2019-04-26T17:00:32.162Z,12.10
2019-04-26T17:01:29.323Z,12.57
2019-04-26T17:04:11.361Z,12.63
2019-04-26T17:06:50.113Z,10.77
2019-04-26T17:09:52.293Z,13.60
2019-04-26T17:12:16.137Z,12.30
2019-04-26T17:17:52.600Z,12.00
2019-04-26T17:20:48.142Z,11.50
2019-04-26T17:23:40.011Z,13.37
2019-04-26T17:29:24.387Z,14.13
2019-04-26T17:32:04.569Z,11.33
2019-04-26T17:34:44.282Z,11.60
2019-04-26T17:37:26.327Z,12.53
2019-04-26T17:40:04.812Z,10.10
2019-04-26T17:42:43.902Z,11.43
2019-04-26T17:48:24.472Z,10.07
2019-04-26T17:51:18.358Z,11.00
2019-04-26T17:54:18.483Z,12.90
2019-04-26T17:56:35.375Z,13.90
2019-04-26T18:02:41.535Z,12.77
2019-04-26T18:05:57.153Z,16.97
2019-04-26T18:08:45.439Z,15.17
2019-04-26T18:11:19.451Z,15.10
2019-04-26T18:13:47.291Z,16.27
2019-04-26T18:16:32.920Z,15.23
2019-04-26T18:19:15.705Z,14.83
2019-04-26T18:22:01.643Z,13.37
2019-04-26T18:25:11.182Z,14.13
2019-04-26T18:28:08.760Z,13.93
2019-04-26T18:30:36.117Z,13.20
2019-04-26T18:33:40.355Z,13.17
2019-04-26T18:36:06.404Z,14.37
2019-04-26T18:39:10.812Z,13.70
2019-04-26T18:41:50.039Z,15.33
2019-04-26T18:44:36.833Z,11.83
2019-04-26T18:47:20.552Z,14.83
2019-04-26T18:53:23.140Z,10.73
2019-04-26T18:58:43.551Z,10.13
2019-04-26T19:01:29.443Z,8.80
2019-04-26T19:04:12.766Z,8.83
2019-04-26T19:07:12.090Z,9.50
2019-04-26T19:09:56.573Z,9.37
2019-04-26T19:12:35.783Z,13.80
2019-04-26T19:15:25.492Z,9.50
2019-04-26T19:18:49.526Z,10.33
2019-04-26T19:21:39.457Z,8.50
2019-04-26T19:24:29.384Z,12.40
2019-04-26T19:26:55.375Z,11.10
2019-04-26T19:29:43.252Z,8.37
2019-04-26T19:32:15.832Z,9.47
2019-04-26T19:35:07.598Z,9.17
2019-04-26T19:41:26.875Z,9.63
2019-04-26T19:47:28.133Z,10.50
2019-04-26T19:56:17.483Z,14.87
2019-04-26T19:59:34.565Z,12.10
2019-04-26T20:02:20.958Z,12.00
2019-04-26T20:04:46.980Z,15.63
2019-04-26T20:07:33.366Z,12.73
2019-04-26T20:10:13.194Z,12.87
2019-04-26T20:12:39.160Z,13.20
2019-04-26T20:15:28.643Z,14.40
2019-04-26T20:18:03.729Z,16.37
2019-04-26T20:20:54.991Z,13.63
2019-04-26T20:23:38.303Z,13.60
2019-04-26T20:26:15.578Z,14.67
2019-04-26T20:28:54.520Z,14.60
2019-04-26T20:31:44.920Z,15.80
2019-04-26T20:34:34.884Z,17.00
2019-04-26T20:37:22.871Z,15.90
2019-04-26T20:40:22.387Z,18.93
2019-04-26T20:43:02.105Z,17.40
2019-04-26T20:45:38.805Z,18.10
2019-04-26T20:51:12.035Z,20.40
2019-04-26T20:53:48.963Z,18.20
2019-04-26T20:56:28.880Z,22.00
2019-04-26T20:59:36.580Z,20.23
2019-04-26T21:05:46.359Z,19.90
2019-04-26T21:08:35.461Z,26.97
2019-04-26T21:14:44.540Z,18.10
2019-04-26T21:20:46.330Z,18.37
2019-04-26T21:23:13.280Z,16.57
2019-04-26T21:26:26.529Z,15.03
2019-04-26T21:32:21.912Z,14.40
2019-04-26T21:37:49.475Z,18.07
2019-04-26T21:40:35.629Z,15.50
2019-04-26T21:43:14.735Z,14.37
2019-04-26T21:45:40.860Z,14.07
2019-04-26T21:48:26.707Z,13.10
2019-04-26T21:51:08.425Z,13.83
2019-04-26T21:57:09.481Z,13.17
2019-04-26T21:59:49.569Z,13.57
2019-04-26T22:02:57.465Z,13.57
2019-04-26T22:05:49.430Z,12.57
2019-04-26T22:11:13.909Z,14.07
2019-04-26T22:14:03.067Z,13.80
2019-04-26T22:16:50.031Z,14.70
2019-04-26T22:19:32.521Z,15.33
2019-04-26T22:22:15.398Z,13.97
2019-04-26T22:27:39.711Z,18.37
2019-04-26T22:30:29.629Z,21.20
2019-04-26T22:33:09.416Z,16.53
2019-04-26T22:38:40.324Z,16.67
2019-04-26T22:45:28.031Z,18.40
2019-04-26T22:51:17.326Z,15.40
2019-04-26T22:54:06.181Z,14.67
2019-04-26T23:00:00.012Z,16.47
2019-04-26T23:02:39.177Z,17.90
2019-04-26T23:05:18.344Z,19.57
2019-04-26T23:07:44.380Z,22.80
2019-04-26T23:17:27.107Z,18.53
2019-04-26T23:22:48.344Z,19.63
2019-04-26T23:25:27.784Z,23.67
2019-04-26T23:28:07.767Z,21.17
2019-04-26T23:31:15.421Z,20.17
2019-04-26T23:34:02.937Z,21.20
2019-04-26T23:40:20.654Z,27.17
2019-04-26T23:43:22.524Z,22.40
2019-04-26T23:46:00.713Z,25.63
2019-04-26T23:48:42.719Z,22.87
2019-04-26T23:51:21.016Z,25.50
2019-04-26T23:53:50.535Z,27.33
2019-04-26T23:56:44.646Z,30.93
2019-04-26T23:59:24.821Z,33.03
